SLJE/SJS METAR and TAF weather

Enter ICAO airport designator
Station Type Date Time Source
SLJE METAR 2024/04/12 17:00 UTC NOAA

SLJE 121700Z 00000KT 9999 OVC015 27/24 Q1017


Station Type Date Time Source
SLJE Decoded METAR 2024/04/12 17:00 UTC NOAA

San Jose De Chiquitos, Bolivia (SLJE) 17-48S 060-44W
Apr 12, 2024 - 01:00 PM EDT / 2024.04.12 1700 UTC
Wind: Calm:0
Visibility: greater than 7 mile(s):0
Sky conditions: overcast
Temperature: 80 F (27 C)
Dew Point: 75 F (24 C)
Relative Humidity: 83%
Pressure (altimeter): 30.03 in. Hg (1017 hPa)
ob: SLJE 121700Z 00000KT 9999 OVC015 27/24 Q1017
cycle: 17

Station Type Date Time Source
SLJE TAF 2009/01/07 11:00 UTC NOAA